sensor_id;sensor_type;location;lat;lon;timestamp;temperature;humidity
59025;DHT22;44806;48.008;13.666;2023-02-05T09:40:43;1.90;98.40
59025;DHT22;44806;48.008;13.666;2023-02-05T09:43:25;2.30;96.60
59025;DHT22;44806;48.008;13.666;2023-02-05T09:45:59;2.40;95.60
59025;DHT22;44806;48.008;13.666;2023-02-05T09:48:46;2.40;95.30
59025;DHT22;44806;48.008;13.666;2023-02-05T09:51:17;2.60;97.50
59025;DHT22;44806;48.008;13.666;2023-02-05T09:53:50;2.70;97.20
59025;DHT22;44806;48.008;13.666;2023-02-05T09:56:20;2.80;96.10
59025;DHT22;44806;48.008;13.666;2023-02-05T09:58:49;2.80;94.10
59025;DHT22;44806;48.008;13.666;2023-02-05T10:01:21;2.70;93.20
59025;DHT22;44806;48.008;13.666;2023-02-05T10:03:51;2.70;93.20
59025;DHT22;44806;48.008;13.666;2023-02-05T10:06:37;2.70;94.50
59025;DHT22;44806;48.008;13.666;2023-02-05T10:09:24;2.80;90.90
59025;DHT22;44806;48.008;13.666;2023-02-05T10:12:01;2.80;92.70
59025;DHT22;44806;48.008;13.666;2023-02-05T10:14:37;2.70;91.00
59025;DHT22;44806;48.008;13.666;2023-02-05T10:17:15;2.70;90.70
59025;DHT22;44806;48.008;13.666;2023-02-05T10:19:54;2.60;83.00
59025;DHT22;44806;48.008;13.666;2023-02-05T10:22:26;2.70;87.30
59025;DHT22;44806;48.008;13.666;2023-02-05T10:25:09;2.80;86.20
59025;DHT22;44806;48.008;13.666;2023-02-05T10:27:48;2.70;81.70
59025;DHT22;44806;48.008;13.666;2023-02-05T10:30:20;2.90;89.40
59025;DHT22;44806;48.008;13.666;2023-02-05T10:32:55;3.00;89.50
59025;DHT22;44806;48.008;13.666;2023-02-05T10:35:26;2.90;84.70
59025;DHT22;44806;48.008;13.666;2023-02-05T10:37:57;2.80;81.90
59025;DHT22;44806;48.008;13.666;2023-02-05T10:40:26;2.70;82.80
59025;DHT22;44806;48.008;13.666;2023-02-05T10:43:00;2.80;84.00
59025;DHT22;44806;48.008;13.666;2023-02-05T10:45:29;3.00;88.40
59025;DHT22;44806;48.008;13.666;2023-02-05T10:48:13;3.10;82.30
59025;DHT22;44806;48.008;13.666;2023-02-05T10:50:52;3.00;85.20
59025;DHT22;44806;48.008;13.666;2023-02-05T10:53:22;3.10;84.90
59025;DHT22;44806;48.008;13.666;2023-02-05T10:55:49;3.20;85.40
59025;DHT22;44806;48.008;13.666;2023-02-05T10:58:50;3.20;85.50
59025;DHT22;44806;48.008;13.666;2023-02-05T11:01:20;3.30;85.30
59025;DHT22;44806;48.008;13.666;2023-02-05T11:03:54;3.30;80.70
59025;DHT22;44806;48.008;13.666;2023-02-05T11:06:24;3.30;81.50
59025;DHT22;44806;48.008;13.666;2023-02-05T11:08:52;3.30;82.00
59025;DHT22;44806;48.008;13.666;2023-02-05T11:11:22;3.40;82.20
59025;DHT22;44806;48.008;13.666;2023-02-05T11:13:54;3.40;82.20
59025;DHT22;44806;48.008;13.666;2023-02-05T11:16:22;3.40;82.20
59025;DHT22;44806;48.008;13.666;2023-02-05T11:18:58;3.40;82.10
59025;DHT22;44806;48.008;13.666;2023-02-05T11:21:46;3.50;79.80
59025;DHT22;44806;48.008;13.666;2023-02-05T11:24:37;3.40;80.60
59025;DHT22;44806;48.008;13.666;2023-02-05T11:27:29;3.50;85.00
59025;DHT22;44806;48.008;13.666;2023-02-05T11:30:17;3.50;80.70
59025;DHT22;44806;48.008;13.666;2023-02-05T11:32:44;3.50;79.90
59025;DHT22;44806;48.008;13.666;2023-02-05T11:35:20;3.50;83.70
59025;DHT22;44806;48.008;13.666;2023-02-05T11:37:54;3.60;82.00
59025;DHT22;44806;48.008;13.666;2023-02-05T11:40:24;3.60;81.40
59025;DHT22;44806;48.008;13.666;2023-02-05T11:43:03;3.60;80.30
59025;DHT22;44806;48.008;13.666;2023-02-05T11:45:34;3.60;81.10
59025;DHT22;44806;48.008;13.666;2023-02-05T11:48:06;3.70;82.90
59025;DHT22;44806;48.008;13.666;2023-02-05T11:50:49;3.80;79.40
59025;DHT22;44806;48.008;13.666;2023-02-05T11:53:17;3.90;83.40
59025;DHT22;44806;48.008;13.666;2023-02-05T11:55:51;3.90;82.10
59025;DHT22;44806;48.008;13.666;2023-02-05T11:58:24;3.90;83.40
59025;DHT22;44806;48.008;13.666;2023-02-05T12:00:54;3.90;78.90
59025;DHT22;44806;48.008;13.666;2023-02-05T12:03:24;3.80;79.00
59025;DHT22;44806;48.008;13.666;2023-02-05T12:06:02;3.90;78.10
59025;DHT22;44806;48.008;13.666;2023-02-05T12:08:44;3.90;79.70
59025;DHT22;44806;48.008;13.666;2023-02-05T12:11:34;4.00;82.40
59025;DHT22;44806;48.008;13.666;2023-02-05T12:17:28;4.20;80.40
59025;DHT22;44806;48.008;13.666;2023-02-05T12:20:03;4.20;79.20
59025;DHT22;44806;48.008;13.666;2023-02-05T12:22:53;4.20;79.10
59025;DHT22;44806;48.008;13.666;2023-02-05T12:25:25;4.10;77.20
59025;DHT22;44806;48.008;13.666;2023-02-05T12:28:08;4.10;78.90
59025;DHT22;44806;48.008;13.666;2023-02-05T12:30:49;4.30;80.00
59025;DHT22;44806;48.008;13.666;2023-02-05T12:36:34;4.10;75.80
59025;DHT22;44806;48.008;13.666;2023-02-05T12:39:11;4.20;77.10
59025;DHT22;44806;48.008;13.666;2023-02-05T12:41:46;4.30;79.70
59025;DHT22;44806;48.008;13.666;2023-02-05T12:44:24;4.30;77.80
59025;DHT22;44806;48.008;13.666;2023-02-05T12:47:01;4.40;78.50
59025;DHT22;44806;48.008;13.666;2023-02-05T12:49:44;4.30;76.10
59025;DHT22;44806;48.008;13.666;2023-02-05T12:52:26;4.30;75.90
59025;DHT22;44806;48.008;13.666;2023-02-05T12:55:09;4.30;75.30
59025;DHT22;44806;48.008;13.666;2023-02-05T12:57:43;4.20;78.60
59025;DHT22;44806;48.008;13.666;2023-02-05T13:00:18;4.30;78.70
59025;DHT22;44806;48.008;13.666;2023-02-05T13:02:55;4.50;76.60
59025;DHT22;44806;48.008;13.666;2023-02-05T13:05:27;4.40;75.40
59025;DHT22;44806;48.008;13.666;2023-02-05T13:07:59;4.50;78.40
59025;DHT22;44806;48.008;13.666;2023-02-05T13:10:36;4.60;78.50
59025;DHT22;44806;48.008;13.666;2023-02-05T13:13:05;4.40;75.30
59025;DHT22;44806;48.008;13.666;2023-02-05T13:15:40;4.50;76.00
59025;DHT22;44806;48.008;13.666;2023-02-05T13:18:13;4.50;77.80
59025;DHT22;44806;48.008;13.666;2023-02-05T13:20:47;4.50;77.00
59025;DHT22;44806;48.008;13.666;2023-02-05T13:23:34;4.40;75.40
59025;DHT22;44806;48.008;13.666;2023-02-05T13:26:25;4.50;76.40
59025;DHT22;44806;48.008;13.666;2023-02-05T13:29:13;4.40;76.30
59025;DHT22;44806;48.008;13.666;2023-02-05T13:31:43;4.40;77.20
59025;DHT22;44806;48.008;13.666;2023-02-05T13:34:15;4.50;77.60
59025;DHT22;44806;48.008;13.666;2023-02-05T13:40:13;4.70;77.90
59025;DHT22;44806;48.008;13.666;2023-02-05T13:43:00;4.60;75.20
59025;DHT22;44806;48.008;13.666;2023-02-05T13:45:58;4.50;74.60
59025;DHT22;44806;48.008;13.666;2023-02-05T13:51:40;4.40;74.10
59025;DHT22;44806;48.008;13.666;2023-02-05T13:54:42;4.40;75.80
59025;DHT22;44806;48.008;13.666;2023-02-05T13:57:57;4.40;75.90
59025;DHT22;44806;48.008;13.666;2023-02-05T14:00:25;4.50;80.80
59025;DHT22;44806;48.008;13.666;2023-02-05T14:02:54;4.50;75.20
59025;DHT22;44806;48.008;13.666;2023-02-05T14:05:28;4.50;75.40
59025;DHT22;44806;48.008;13.666;2023-02-05T14:07:56;4.60;76.90
59025;DHT22;44806;48.008;13.666;2023-02-05T14:10:31;4.50;77.50
59025;DHT22;44806;48.008;13.666;2023-02-05T14:13:11;4.60;76.20
59025;DHT22;44806;48.008;13.666;2023-02-05T14:15:40;4.60;79.70
59025;DHT22;44806;48.008;13.666;2023-02-05T14:18:09;4.70;77.60
59025;DHT22;44806;48.008;13.666;2023-02-05T14:20:39;4.60;77.80
59025;DHT22;44806;48.008;13.666;2023-02-05T14:23:13;4.50;74.90
59025;DHT22;44806;48.008;13.666;2023-02-05T14:26:08;4.50;79.80
59025;DHT22;44806;48.008;13.666;2023-02-05T14:28:49;4.50;78.00
59025;DHT22;44806;48.008;13.666;2023-02-05T14:31:46;4.40;75.50
59025;DHT22;44806;48.008;13.666;2023-02-05T14:34:27;4.40;79.60
59025;DHT22;44806;48.008;13.666;2023-02-05T14:37:28;4.30;78.10
59025;DHT22;44806;48.008;13.666;2023-02-05T14:39:58;4.20;79.30
59025;DHT22;44806;48.008;13.666;2023-02-05T14:42:38;4.10;81.60
59025;DHT22;44806;48.008;13.666;2023-02-05T14:45:11;4.10;78.10
59025;DHT22;44806;48.008;13.666;2023-02-05T14:47:42;4.00;78.10
59025;DHT22;44806;48.008;13.666;2023-02-05T14:50:18;4.10;79.90
59025;DHT22;44806;48.008;13.666;2023-02-05T14:52:47;4.10;80.10
59025;DHT22;44806;48.008;13.666;2023-02-05T14:55:19;4.10;79.70
59025;DHT22;44806;48.008;13.666;2023-02-05T14:57:50;4.10;78.50
59025;DHT22;44806;48.008;13.666;2023-02-05T15:00:27;4.10;83.70
59025;DHT22;44806;48.008;13.666;2023-02-05T15:03:19;4.00;78.40
59025;DHT22;44806;48.008;13.666;2023-02-05T15:05:51;4.10;79.90
59025;DHT22;44806;48.008;13.666;2023-02-05T15:08:25;4.10;81.00
59025;DHT22;44806;48.008;13.666;2023-02-05T15:11:04;4.00;80.00
59025;DHT22;44806;48.008;13.666;2023-02-05T15:13:33;4.00;79.60
59025;DHT22;44806;48.008;13.666;2023-02-05T15:16:20;4.10;81.30
59025;DHT22;44806;48.008;13.666;2023-02-05T15:18:49;4.00;83.10
59025;DHT22;44806;48.008;13.666;2023-02-05T15:21:23;4.00;82.20
59025;DHT22;44806;48.008;13.666;2023-02-05T15:23:57;3.90;81.80
59025;DHT22;44806;48.008;13.666;2023-02-05T15:26:31;3.90;81.60
59025;DHT22;44806;48.008;13.666;2023-02-05T15:29:05;3.90;81.70
59025;DHT22;44806;48.008;13.666;2023-02-05T15:31:37;3.90;79.80
59025;DHT22;44806;48.008;13.666;2023-02-05T15:34:32;3.90;80.10
59025;DHT22;44806;48.008;13.666;2023-02-05T15:37:03;3.80;80.80
59025;DHT22;44806;48.008;13.666;2023-02-05T15:39:44;3.90;81.00
59025;DHT22;44806;48.008;13.666;2023-02-05T15:42:16;3.90;82.40
59025;DHT22;44806;48.008;13.666;2023-02-05T15:44:45;3.80;82.70
59025;DHT22;44806;48.008;13.666;2023-02-05T15:47:17;3.70;81.00
59025;DHT22;44806;48.008;13.666;2023-02-05T15:49:46;3.70;82.30
59025;DHT22;44806;48.008;13.666;2023-02-05T15:52:18;3.70;82.20
59025;DHT22;44806;48.008;13.666;2023-02-05T15:54:45;3.60;83.50
59025;DHT22;44806;48.008;13.666;2023-02-05T15:57:18;3.70;83.60
59025;DHT22;44806;48.008;13.666;2023-02-05T15:59:49;3.70;84.00
59025;DHT22;44806;48.008;13.666;2023-02-05T16:02:22;3.60;83.80
59025;DHT22;44806;48.008;13.666;2023-02-05T16:04:54;3.60;82.70
59025;DHT22;44806;48.008;13.666;2023-02-05T16:07:24;3.40;82.50
59025;DHT22;44806;48.008;13.666;2023-02-05T16:09:53;3.50;81.50
59025;DHT22;44806;48.008;13.666;2023-02-05T16:12:20;3.40;82.50
59025;DHT22;44806;48.008;13.666;2023-02-05T16:15:01;3.40;82.30
59025;DHT22;44806;48.008;13.666;2023-02-05T16:17:33;3.30;83.00
59025;DHT22;44806;48.008;13.666;2023-02-05T16:20:11;3.20;82.80
59025;DHT22;44806;48.008;13.666;2023-02-05T16:22:43;3.20;85.50
59025;DHT22;44806;48.008;13.666;2023-02-05T16:25:24;3.10;86.80
59025;DHT22;44806;48.008;13.666;2023-02-05T16:27:55;3.00;85.60
59025;DHT22;44806;48.008;13.666;2023-02-05T16:30:29;3.00;84.80
59025;DHT22;44806;48.008;13.666;2023-02-05T16:32:58;3.00;85.80
59025;DHT22;44806;48.008;13.666;2023-02-05T16:35:28;2.90;85.80
59025;DHT22;44806;48.008;13.666;2023-02-05T16:37:57;2.80;88.00
59025;DHT22;44806;48.008;13.666;2023-02-05T16:40:31;2.80;86.90
59025;DHT22;44806;48.008;13.666;2023-02-05T16:43:18;2.90;87.00
59025;DHT22;44806;48.008;13.666;2023-02-05T16:46:25;2.90;87.10
59025;DHT22;44806;48.008;13.666;2023-02-05T16:48:55;2.80;88.00
59025;DHT22;44806;48.008;13.666;2023-02-05T16:51:37;2.80;87.30
59025;DHT22;44806;48.008;13.666;2023-02-05T16:54:26;2.90;88.40
59025;DHT22;44806;48.008;13.666;2023-02-05T16:56:57;2.90;88.60
59025;DHT22;44806;48.008;13.666;2023-02-05T16:59:28;2.90;88.20
59025;DHT22;44806;48.008;13.666;2023-02-05T17:01:57;2.80;88.20
59025;DHT22;44806;48.008;13.666;2023-02-05T17:04:28;2.80;88.90
59025;DHT22;44806;48.008;13.666;2023-02-05T17:06:58;2.80;88.70
59025;DHT22;44806;48.008;13.666;2023-02-05T17:09:31;2.80;88.80
59025;DHT22;44806;48.008;13.666;2023-02-05T17:15:24;2.70;89.80
59025;DHT22;44806;48.008;13.666;2023-02-05T17:17:54;2.60;89.20
59025;DHT22;44806;48.008;13.666;2023-02-05T17:20:23;2.70;89.90
59025;DHT22;44806;48.008;13.666;2023-02-05T17:23:10;2.60;90.00
59025;DHT22;44806;48.008;13.666;2023-02-05T17:25:40;2.60;89.30
59025;DHT22;44806;48.008;13.666;2023-02-05T17:28:12;2.60;90.00
59025;DHT22;44806;48.008;13.666;2023-02-05T17:30:41;2.50;90.40
59025;DHT22;44806;48.008;13.666;2023-02-05T17:33:14;2.50;90.40
59025;DHT22;44806;48.008;13.666;2023-02-05T17:35:41;2.50;90.10
59025;DHT22;44806;48.008;13.666;2023-02-05T17:38:08;2.40;90.60
59025;DHT22;44806;48.008;13.666;2023-02-05T17:40:35;2.40;90.40
59025;DHT22;44806;48.008;13.666;2023-02-05T17:43:02;2.30;90.60
59025;DHT22;44806;48.008;13.666;2023-02-05T17:45:31;2.30;90.40
59025;DHT22;44806;48.008;13.666;2023-02-05T17:47:59;2.30;90.80
59025;DHT22;44806;48.008;13.666;2023-02-05T17:50:28;2.40;91.00
59025;DHT22;44806;48.008;13.666;2023-02-05T17:52:55;2.30;91.10
59025;DHT22;44806;48.008;13.666;2023-02-05T17:55:23;2.30;91.00
59025;DHT22;44806;48.008;13.666;2023-02-05T17:57:50;2.20;90.80
59025;DHT22;44806;48.008;13.666;2023-02-05T18:00:21;2.20;91.00
59025;DHT22;44806;48.008;13.666;2023-02-05T18:02:48;2.10;91.00
59025;DHT22;44806;48.008;13.666;2023-02-05T18:05:15;2.10;91.20
59025;DHT22;44806;48.008;13.666;2023-02-05T18:07:49;2.10;91.80
59025;DHT22;44806;48.008;13.666;2023-02-05T18:10:20;2.00;91.70
59025;DHT22;44806;48.008;13.666;2023-02-05T18:12:48;2.00;91.60
59025;DHT22;44806;48.008;13.666;2023-02-05T18:15:15;2.00;91.90
59025;DHT22;44806;48.008;13.666;2023-02-05T18:17:42;2.00;92.00
59025;DHT22;44806;48.008;13.666;2023-02-05T18:20:10;2.00;92.10
59025;DHT22;44806;48.008;13.666;2023-02-05T18:22:37;1.80;92.10
59025;DHT22;44806;48.008;13.666;2023-02-05T18:25:07;1.90;91.60
59025;DHT22;44806;48.008;13.666;2023-02-05T18:27:34;1.80;91.80
59025;DHT22;44806;48.008;13.666;2023-02-05T18:30:02;1.70;92.00
59025;DHT22;44806;48.008;13.666;2023-02-05T18:32:29;1.70;92.40
59025;DHT22;44806;48.008;13.666;2023-02-05T18:34:56;1.70;92.20
59025;DHT22;44806;48.008;13.666;2023-02-05T18:37:23;1.70;92.30
59025;DHT22;44806;48.008;13.666;2023-02-05T18:39:50;1.70;92.70
59025;DHT22;44806;48.008;13.666;2023-02-05T18:42:19;1.60;92.80
59025;DHT22;44806;48.008;13.666;2023-02-05T18:44:47;1.60;92.60
59025;DHT22;44806;48.008;13.666;2023-02-05T18:47:14;1.60;92.80
59025;DHT22;44806;48.008;13.666;2023-02-05T18:49:41;1.60;93.20
59025;DHT22;44806;48.008;13.666;2023-02-05T18:52:08;1.60;93.00
59025;DHT22;44806;48.008;13.666;2023-02-05T18:54:36;1.60;93.10
59025;DHT22;44806;48.008;13.666;2023-02-05T18:57:03;1.50;92.80
59025;DHT22;44806;48.008;13.666;2023-02-05T18:59:31;1.40;93.00
59025;DHT22;44806;48.008;13.666;2023-02-05T19:01:58;1.40;93.10
59025;DHT22;44806;48.008;13.666;2023-02-05T19:04:26;1.40;93.10
59025;DHT22;44806;48.008;13.666;2023-02-05T19:06:57;1.30;93.50
59025;DHT22;44806;48.008;13.666;2023-02-05T19:09:26;1.20;93.60
59025;DHT22;44806;48.008;13.666;2023-02-05T19:11:53;1.20;94.10
59025;DHT22;44806;48.008;13.666;2023-02-05T19:14:22;1.30;93.90
59025;DHT22;44806;48.008;13.666;2023-02-05T19:16:51;1.30;93.10
59025;DHT22;44806;48.008;13.666;2023-02-05T19:19:20;1.30;92.80
59025;DHT22;44806;48.008;13.666;2023-02-05T19:21:49;1.50;92.70
59025;DHT22;44806;48.008;13.666;2023-02-05T19:24:18;1.30;93.10
59025;DHT22;44806;48.008;13.666;2023-02-05T19:26:48;1.30;92.90
59025;DHT22;44806;48.008;13.666;2023-02-05T19:29:17;1.30;93.40
59025;DHT22;44806;48.008;13.666;2023-02-05T19:31:45;1.30;93.20
59025;DHT22;44806;48.008;13.666;2023-02-05T19:34:14;1.30;93.20
59025;DHT22;44806;48.008;13.666;2023-02-05T19:36:42;1.20;93.00
59025;DHT22;44806;48.008;13.666;2023-02-05T19:39:13;1.20;93.10
59025;DHT22;44806;48.008;13.666;2023-02-05T19:41:40;1.20;93.40
59025;DHT22;44806;48.008;13.666;2023-02-05T19:44:14;1.10;93.00
59025;DHT22;44806;48.008;13.666;2023-02-05T19:46:42;1.10;92.80
59025;DHT22;44806;48.008;13.666;2023-02-05T19:49:13;1.00;93.10
59025;DHT22;44806;48.008;13.666;2023-02-05T19:51:43;1.00;93.20
59025;DHT22;44806;48.008;13.666;2023-02-05T19:54:11;0.90;93.30
59025;DHT22;44806;48.008;13.666;2023-02-05T19:56:39;0.90;93.50
59025;DHT22;44806;48.008;13.666;2023-02-05T19:59:07;0.90;95.00
59025;DHT22;44806;48.008;13.666;2023-02-05T20:01:35;0.90;93.90
59025;DHT22;44806;48.008;13.666;2023-02-05T20:04:06;0.90;94.20
59025;DHT22;44806;48.008;13.666;2023-02-05T20:06:36;0.80;93.80
59025;DHT22;44806;48.008;13.666;2023-02-05T20:09:04;0.80;93.40
59025;DHT22;44806;48.008;13.666;2023-02-05T20:11:37;0.70;93.90
59025;DHT22;44806;48.008;13.666;2023-02-05T20:14:04;0.70;94.60
59025;DHT22;44806;48.008;13.666;2023-02-05T20:16:32;0.70;94.40
59025;DHT22;44806;48.008;13.666;2023-02-05T20:19:00;0.70;93.60
59025;DHT22;44806;48.008;13.666;2023-02-05T20:21:28;0.70;93.90
59025;DHT22;44806;48.008;13.666;2023-02-05T20:23:56;0.60;93.50
59025;DHT22;44806;48.008;13.666;2023-02-05T20:26:24;0.60;93.30
59025;DHT22;44806;48.008;13.666;2023-02-05T20:28:53;0.60;93.60
59025;DHT22;44806;48.008;13.666;2023-02-05T20:31:40;0.50;93.40
59025;DHT22;44806;48.008;13.666;2023-02-05T20:34:09;0.40;95.10
59025;DHT22;44806;48.008;13.666;2023-02-05T20:36:36;0.40;95.30
59025;DHT22;44806;48.008;13.666;2023-02-05T20:39:06;0.30;95.70
59025;DHT22;44806;48.008;13.666;2023-02-05T20:41:33;0.20;96.40
59025;DHT22;44806;48.008;13.666;2023-02-05T20:44:00;0.10;97.00
59025;DHT22;44806;48.008;13.666;2023-02-05T20:46:28;0.10;97.60
59025;DHT22;44806;48.008;13.666;2023-02-05T20:48:57;0.10;97.80
59025;DHT22;44806;48.008;13.666;2023-02-05T20:51:25;0.00;97.90
59025;DHT22;44806;48.008;13.666;2023-02-05T20:53:54;0.00;98.00
59025;DHT22;44806;48.008;13.666;2023-02-05T20:56:24;-0.10;98.60
59025;DHT22;44806;48.008;13.666;2023-02-05T20:58:52;-0.10;98.60
59025;DHT22;44806;48.008;13.666;2023-02-05T21:01:20;-0.20;99.00
59025;DHT22;44806;48.008;13.666;2023-02-05T21:03:50;-0.20;99.80
59025;DHT22;44806;48.008;13.666;2023-02-05T21:06:19;-0.20;99.60
59025;DHT22;44806;48.008;13.666;2023-02-05T21:08:48;-0.20;99.90
59025;DHT22;44806;48.008;13.666;2023-02-05T21:11:16;-0.20;99.90
59025;DHT22;44806;48.008;13.666;2023-02-05T21:13:46;-0.20;99.90
59025;DHT22;44806;48.008;13.666;2023-02-05T21:16:17;-0.20;99.90
59025;DHT22;44806;48.008;13.666;2023-02-05T21:18:46;-0.30;99.90
59025;DHT22;44806;48.008;13.666;2023-02-05T21:21:14;-0.30;99.90
59025;DHT22;44806;48.008;13.666;2023-02-05T21:23:41;-0.30;99.90
59025;DHT22;44806;48.008;13.666;2023-02-05T21:26:17;-0.30;99.90
59025;DHT22;44806;48.008;13.666;2023-02-05T21:28:46;-0.30;99.90
59025;DHT22;44806;48.008;13.666;2023-02-05T21:31:13;-0.20;99.90
59025;DHT22;44806;48.008;13.666;2023-02-05T21:33:40;-0.20;99.90
59025;DHT22;44806;48.008;13.666;2023-02-05T21:36:08;-0.20;99.90
59025;DHT22;44806;48.008;13.666;2023-02-05T21:38:37;-0.10;99.90
59025;DHT22;44806;48.008;13.666;2023-02-05T21:41:06;-0.10;99.90
59025;DHT22;44806;48.008;13.666;2023-02-05T21:43:33;-0.10;99.90
59025;DHT22;44806;48.008;13.666;2023-02-05T21:46:02;-0.10;99.90
59025;DHT22;44806;48.008;13.666;2023-02-05T21:48:29;0.00;99.70
59025;DHT22;44806;48.008;13.666;2023-02-05T21:50:56;0.00;99.10
59025;DHT22;44806;48.008;13.666;2023-02-05T21:53:25;0.00;99.50
59025;DHT22;44806;48.008;13.666;2023-02-05T21:55:52;0.00;99.30
59025;DHT22;44806;48.008;13.666;2023-02-05T21:58:20;0.00;98.70
59025;DHT22;44806;48.008;13.666;2023-02-05T22:00:47;0.00;98.20
59025;DHT22;44806;48.008;13.666;2023-02-05T22:03:15;0.00;98.40
59025;DHT22;44806;48.008;13.666;2023-02-05T22:05:42;0.00;98.70
59025;DHT22;44806;48.008;13.666;2023-02-05T22:08:09;0.00;98.60
59025;DHT22;44806;48.008;13.666;2023-02-05T22:10:37;-0.10;99.60
59025;DHT22;44806;48.008;13.666;2023-02-05T22:13:04;-0.20;99.90
59025;DHT22;44806;48.008;13.666;2023-02-05T22:15:31;-0.20;99.60
59025;DHT22;44806;48.008;13.666;2023-02-05T22:17:58;-0.20;99.70
59025;DHT22;44806;48.008;13.666;2023-02-05T22:20:27;-0.20;99.40
59025;DHT22;44806;48.008;13.666;2023-02-05T22:22:54;-0.20;99.60
59025;DHT22;44806;48.008;13.666;2023-02-05T22:25:21;-0.20;99.90
59025;DHT22;44806;48.008;13.666;2023-02-05T22:27:50;-0.40;99.90
59025;DHT22;44806;48.008;13.666;2023-02-05T22:30:17;-0.40;99.90
59025;DHT22;44806;48.008;13.666;2023-02-05T22:32:44;-0.40;99.90
59025;DHT22;44806;48.008;13.666;2023-02-05T22:35:11;-0.40;99.20
59025;DHT22;44806;48.008;13.666;2023-02-05T22:37:40;-0.40;99.10
59025;DHT22;44806;48.008;13.666;2023-02-05T22:40:08;-0.40;99.30
59025;DHT22;44806;48.008;13.666;2023-02-05T22:42:35;-0.40;99.00
59025;DHT22;44806;48.008;13.666;2023-02-05T22:45:02;-0.40;99.20
59025;DHT22;44806;48.008;13.666;2023-02-05T22:47:29;-0.40;99.30
59025;DHT22;44806;48.008;13.666;2023-02-05T22:49:56;-0.50;99.00
59025;DHT22;44806;48.008;13.666;2023-02-05T22:52:23;-0.40;99.90
59025;DHT22;44806;48.008;13.666;2023-02-05T22:54:52;-0.40;99.10
59025;DHT22;44806;48.008;13.666;2023-02-05T22:57:19;-0.50;99.40
59025;DHT22;44806;48.008;13.666;2023-02-05T22:59:47;-0.60;99.10
59025;DHT22;44806;48.008;13.666;2023-02-05T23:02:14;-0.70;99.60
59025;DHT22;44806;48.008;13.666;2023-02-05T23:04:41;-0.70;99.70
59025;DHT22;44806;48.008;13.666;2023-02-05T23:07:08;-0.60;99.60
59025;DHT22;44806;48.008;13.666;2023-02-05T23:09:35;-0.70;99.80
59025;DHT22;44806;48.008;13.666;2023-02-05T23:12:04;-0.80;99.20
59025;DHT22;44806;48.008;13.666;2023-02-05T23:14:31;-0.70;99.50
59025;DHT22;44806;48.008;13.666;2023-02-05T23:16:58;-0.70;99.40
59025;DHT22;44806;48.008;13.666;2023-02-05T23:19:25;-0.80;99.60
59025;DHT22;44806;48.008;13.666;2023-02-05T23:21:52;-0.80;99.40
59025;DHT22;44806;48.008;13.666;2023-02-05T23:24:19;-0.80;99.70
59025;DHT22;44806;48.008;13.666;2023-02-05T23:26:47;-0.80;99.90
59025;DHT22;44806;48.008;13.666;2023-02-05T23:29:16;-0.80;99.40
59025;DHT22;44806;48.008;13.666;2023-02-05T23:31:44;-0.90;99.30
59025;DHT22;44806;48.008;13.666;2023-02-05T23:34:11;-0.80;99.60
59025;DHT22;44806;48.008;13.666;2023-02-05T23:36:39;-0.80;99.90
59025;DHT22;44806;48.008;13.666;2023-02-05T23:39:06;-0.80;99.60
59025;DHT22;44806;48.008;13.666;2023-02-05T23:41:33;-0.90;99.50
59025;DHT22;44806;48.008;13.666;2023-02-05T23:44:06;-0.90;99.10
59025;DHT22;44806;48.008;13.666;2023-02-05T23:46:35;-0.90;98.90
59025;DHT22;44806;48.008;13.666;2023-02-05T23:49:03;-0.90;99.40
59025;DHT22;44806;48.008;13.666;2023-02-05T23:51:31;-0.90;99.80
59025;DHT22;44806;48.008;13.666;2023-02-05T23:53:58;-1.00;99.50
59025;DHT22;44806;48.008;13.666;2023-02-05T23:56:25;-1.00;99.90
59025;DHT22;44806;48.008;13.666;2023-02-05T23:58:52;-0.90;99.40
